sensor_id;sensor_type;location;lat;lon;timestamp;temperature;humidity
23703;DHT22;12030;50.376;8.762;2024-02-26T00:02:23;5.10;99.90
23703;DHT22;12030;50.376;8.762;2024-02-26T00:04:49;5.10;99.90
23703;DHT22;12030;50.376;8.762;2024-02-26T00:07:15;5.10;99.90
23703;DHT22;12030;50.376;8.762;2024-02-26T00:09:41;5.10;99.90
23703;DHT22;12030;50.376;8.762;2024-02-26T00:12:06;5.20;99.90
23703;DHT22;12030;50.376;8.762;2024-02-26T00:14:32;5.20;99.90
23703;DHT22;12030;50.376;8.762;2024-02-26T00:16:57;5.20;99.90
23703;DHT22;12030;50.376;8.762;2024-02-26T00:19:23;5.30;99.90
23703;DHT22;12030;50.376;8.762;2024-02-26T00:21:48;5.30;99.90
23703;DHT22;12030;50.376;8.762;2024-02-26T00:24:14;5.40;99.90
23703;DHT22;12030;50.376;8.762;2024-02-26T00:26:39;5.30;99.90
23703;DHT22;12030;50.376;8.762;2024-02-26T00:29:05;5.30;99.90
23703;DHT22;12030;50.376;8.762;2024-02-26T00:31:31;5.30;99.90
23703;DHT22;12030;50.376;8.762;2024-02-26T00:33:56;5.30;99.90
23703;DHT22;12030;50.376;8.762;2024-02-26T00:36:22;5.30;99.90
23703;DHT22;12030;50.376;8.762;2024-02-26T00:38:48;5.30;99.90
23703;DHT22;12030;50.376;8.762;2024-02-26T00:41:20;5.20;99.90
23703;DHT22;12030;50.376;8.762;2024-02-26T00:43:46;5.20;99.90
23703;DHT22;12030;50.376;8.762;2024-02-26T00:46:11;5.20;99.90
23703;DHT22;12030;50.376;8.762;2024-02-26T00:48:37;5.20;99.90
23703;DHT22;12030;50.376;8.762;2024-02-26T00:51:03;5.20;99.90
23703;DHT22;12030;50.376;8.762;2024-02-26T00:53:31;5.20;99.90
23703;DHT22;12030;50.376;8.762;2024-02-26T00:55:57;5.20;99.90
23703;DHT22;12030;50.376;8.762;2024-02-26T00:58:24;5.20;99.90
23703;DHT22;12030;50.376;8.762;2024-02-26T01:00:50;5.20;99.90
23703;DHT22;12030;50.376;8.762;2024-02-26T01:03:15;5.20;99.90
23703;DHT22;12030;50.376;8.762;2024-02-26T01:05:41;5.20;99.90
23703;DHT22;12030;50.376;8.762;2024-02-26T01:08:07;5.20;99.90
23703;DHT22;12030;50.376;8.762;2024-02-26T01:10:33;5.30;99.90
23703;DHT22;12030;50.376;8.762;2024-02-26T01:12:59;5.30;99.90
23703;DHT22;12030;50.376;8.762;2024-02-26T01:15:25;5.30;99.90
23703;DHT22;12030;50.376;8.762;2024-02-26T01:17:51;5.30;99.90
23703;DHT22;12030;50.376;8.762;2024-02-26T01:20:16;5.30;99.90
23703;DHT22;12030;50.376;8.762;2024-02-26T01:22:43;5.30;99.90
23703;DHT22;12030;50.376;8.762;2024-02-26T01:25:09;5.30;99.90
23703;DHT22;12030;50.376;8.762;2024-02-26T01:27:36;5.30;99.90
23703;DHT22;12030;50.376;8.762;2024-02-26T01:30:05;5.20;99.90
23703;DHT22;12030;50.376;8.762;2024-02-26T01:32:31;5.20;99.90
23703;DHT22;12030;50.376;8.762;2024-02-26T01:34:56;5.30;99.90
23703;DHT22;12030;50.376;8.762;2024-02-26T01:37:22;5.30;99.90
23703;DHT22;12030;50.376;8.762;2024-02-26T01:39:47;5.30;99.90
23703;DHT22;12030;50.376;8.762;2024-02-26T01:42:13;5.30;99.90
23703;DHT22;12030;50.376;8.762;2024-02-26T01:44:39;5.30;99.90
23703;DHT22;12030;50.376;8.762;2024-02-26T01:47:05;5.20;99.90
23703;DHT22;12030;50.376;8.762;2024-02-26T01:49:33;5.30;99.90
23703;DHT22;12030;50.376;8.762;2024-02-26T01:52:00;5.40;99.90
23703;DHT22;12030;50.376;8.762;2024-02-26T01:54:27;5.30;99.90
23703;DHT22;12030;50.376;8.762;2024-02-26T01:56:53;5.30;99.90
23703;DHT22;12030;50.376;8.762;2024-02-26T01:59:19;5.40;99.90
23703;DHT22;12030;50.376;8.762;2024-02-26T02:01:49;5.40;99.90
23703;DHT22;12030;50.376;8.762;2024-02-26T02:04:17;5.40;99.90
23703;DHT22;12030;50.376;8.762;2024-02-26T02:06:45;5.30;99.90
23703;DHT22;12030;50.376;8.762;2024-02-26T02:09:11;5.30;99.90
23703;DHT22;12030;50.376;8.762;2024-02-26T02:11:37;5.40;99.90
23703;DHT22;12030;50.376;8.762;2024-02-26T02:14:03;5.40;99.90
23703;DHT22;12030;50.376;8.762;2024-02-26T02:16:29;5.50;99.90
23703;DHT22;12030;50.376;8.762;2024-02-26T02:18:54;5.60;99.90
23703;DHT22;12030;50.376;8.762;2024-02-26T02:21:20;5.60;99.90
23703;DHT22;12030;50.376;8.762;2024-02-26T02:23:45;5.50;99.90
23703;DHT22;12030;50.376;8.762;2024-02-26T02:26:13;5.40;99.90
23703;DHT22;12030;50.376;8.762;2024-02-26T02:28:39;5.50;99.90
23703;DHT22;12030;50.376;8.762;2024-02-26T02:31:05;5.40;99.90
23703;DHT22;12030;50.376;8.762;2024-02-26T02:33:32;5.40;99.90
23703;DHT22;12030;50.376;8.762;2024-02-26T02:35:58;5.50;99.90
23703;DHT22;12030;50.376;8.762;2024-02-26T02:38:24;5.60;99.90
23703;DHT22;12030;50.376;8.762;2024-02-26T02:40:51;5.60;99.90
23703;DHT22;12030;50.376;8.762;2024-02-26T02:43:17;5.60;99.90
23703;DHT22;12030;50.376;8.762;2024-02-26T02:45:42;5.60;99.90
23703;DHT22;12030;50.376;8.762;2024-02-26T02:48:08;5.60;99.90
23703;DHT22;12030;50.376;8.762;2024-02-26T02:50:33;5.50;99.90
23703;DHT22;12030;50.376;8.762;2024-02-26T02:52:59;5.50;99.90
23703;DHT22;12030;50.376;8.762;2024-02-26T02:55:25;5.40;99.90
23703;DHT22;12030;50.376;8.762;2024-02-26T02:57:50;5.40;99.90
23703;DHT22;12030;50.376;8.762;2024-02-26T03:00:16;5.40;99.90
23703;DHT22;12030;50.376;8.762;2024-02-26T03:02:42;5.40;99.90
23703;DHT22;12030;50.376;8.762;2024-02-26T03:05:08;5.30;99.90
23703;DHT22;12030;50.376;8.762;2024-02-26T03:07:34;5.30;99.90
23703;DHT22;12030;50.376;8.762;2024-02-26T03:09:59;5.20;99.90
23703;DHT22;12030;50.376;8.762;2024-02-26T03:12:25;5.30;99.90
23703;DHT22;12030;50.376;8.762;2024-02-26T03:14:50;5.40;99.90
23703;DHT22;12030;50.376;8.762;2024-02-26T03:17:16;5.30;99.90
23703;DHT22;12030;50.376;8.762;2024-02-26T03:19:44;5.40;99.90
23703;DHT22;12030;50.376;8.762;2024-02-26T03:22:12;5.40;99.90
23703;DHT22;12030;50.376;8.762;2024-02-26T03:24:38;5.50;99.90
23703;DHT22;12030;50.376;8.762;2024-02-26T03:27:03;5.50;99.90
23703;DHT22;12030;50.376;8.762;2024-02-26T03:29:37;5.50;99.90
23703;DHT22;12030;50.376;8.762;2024-02-26T03:32:03;5.50;99.90
23703;DHT22;12030;50.376;8.762;2024-02-26T03:34:29;5.50;99.90
23703;DHT22;12030;50.376;8.762;2024-02-26T03:36:56;5.60;99.90
23703;DHT22;12030;50.376;8.762;2024-02-26T03:39:21;5.60;99.90
23703;DHT22;12030;50.376;8.762;2024-02-26T03:41:47;5.50;99.90
23703;DHT22;12030;50.376;8.762;2024-02-26T03:44:13;5.60;99.90
23703;DHT22;12030;50.376;8.762;2024-02-26T03:46:39;5.60;99.90
23703;DHT22;12030;50.376;8.762;2024-02-26T03:49:04;5.60;99.90
23703;DHT22;12030;50.376;8.762;2024-02-26T03:51:30;5.60;99.90
23703;DHT22;12030;50.376;8.762;2024-02-26T03:53:57;5.60;99.90
23703;DHT22;12030;50.376;8.762;2024-02-26T03:56:23;5.60;99.90
23703;DHT22;12030;50.376;8.762;2024-02-26T03:58:49;5.60;99.90
23703;DHT22;12030;50.376;8.762;2024-02-26T04:01:15;5.60;99.90
23703;DHT22;12030;50.376;8.762;2024-02-26T04:03:41;5.60;99.90
23703;DHT22;12030;50.376;8.762;2024-02-26T04:06:09;5.60;99.90
23703;DHT22;12030;50.376;8.762;2024-02-26T04:08:36;5.70;99.90
23703;DHT22;12030;50.376;8.762;2024-02-26T04:11:02;5.60;99.90
23703;DHT22;12030;50.376;8.762;2024-02-26T04:13:32;5.60;99.90
23703;DHT22;12030;50.376;8.762;2024-02-26T04:15:57;5.60;99.90
23703;DHT22;12030;50.376;8.762;2024-02-26T04:18:23;5.70;99.90
23703;DHT22;12030;50.376;8.762;2024-02-26T04:20:48;5.70;99.90
23703;DHT22;12030;50.376;8.762;2024-02-26T04:23:14;5.70;99.90
23703;DHT22;12030;50.376;8.762;2024-02-26T04:25:39;5.70;99.90
23703;DHT22;12030;50.376;8.762;2024-02-26T04:28:05;5.70;99.90
23703;DHT22;12030;50.376;8.762;2024-02-26T04:30:31;5.70;99.90
23703;DHT22;12030;50.376;8.762;2024-02-26T04:32:56;5.60;99.90
23703;DHT22;12030;50.376;8.762;2024-02-26T04:35:22;5.60;99.90
23703;DHT22;12030;50.376;8.762;2024-02-26T04:37:47;5.60;99.90
23703;DHT22;12030;50.376;8.762;2024-02-26T04:40:13;5.50;99.90
23703;DHT22;12030;50.376;8.762;2024-02-26T04:42:38;5.50;99.90
23703;DHT22;12030;50.376;8.762;2024-02-26T04:45:04;5.60;99.90
23703;DHT22;12030;50.376;8.762;2024-02-26T04:47:30;5.70;99.90
23703;DHT22;12030;50.376;8.762;2024-02-26T04:49:55;5.70;99.90
23703;DHT22;12030;50.376;8.762;2024-02-26T04:52:21;5.70;99.90
23703;DHT22;12030;50.376;8.762;2024-02-26T04:54:47;5.70;99.90
23703;DHT22;12030;50.376;8.762;2024-02-26T04:57:12;5.80;99.90
23703;DHT22;12030;50.376;8.762;2024-02-26T04:59:38;5.70;99.90
23703;DHT22;12030;50.376;8.762;2024-02-26T05:02:03;5.70;99.90
23703;DHT22;12030;50.376;8.762;2024-02-26T05:04:29;5.70;99.90
23703;DHT22;12030;50.376;8.762;2024-02-26T05:06:55;5.70;99.90
23703;DHT22;12030;50.376;8.762;2024-02-26T05:09:20;5.80;99.90
23703;DHT22;12030;50.376;8.762;2024-02-26T05:11:46;5.80;99.90
23703;DHT22;12030;50.376;8.762;2024-02-26T05:14:11;5.70;99.90
23703;DHT22;12030;50.376;8.762;2024-02-26T05:16:37;5.70;99.90
23703;DHT22;12030;50.376;8.762;2024-02-26T05:19:02;5.60;99.90
23703;DHT22;12030;50.376;8.762;2024-02-26T05:21:28;5.70;99.90
23703;DHT22;12030;50.376;8.762;2024-02-26T05:23:54;5.70;99.90
23703;DHT22;12030;50.376;8.762;2024-02-26T05:26:22;5.70;99.90
23703;DHT22;12030;50.376;8.762;2024-02-26T05:28:48;5.70;99.90
23703;DHT22;12030;50.376;8.762;2024-02-26T05:31:14;5.60;99.90
23703;DHT22;12030;50.376;8.762;2024-02-26T05:33:40;5.60;99.90
23703;DHT22;12030;50.376;8.762;2024-02-26T05:36:06;5.60;99.90
23703;DHT22;12030;50.376;8.762;2024-02-26T05:38:32;5.60;99.90
23703;DHT22;12030;50.376;8.762;2024-02-26T05:41:00;5.60;99.90
23703;DHT22;12030;50.376;8.762;2024-02-26T05:43:27;5.60;99.90
23703;DHT22;12030;50.376;8.762;2024-02-26T05:45:53;5.60;99.90
23703;DHT22;12030;50.376;8.762;2024-02-26T05:48:19;5.60;99.90
23703;DHT22;12030;50.376;8.762;2024-02-26T05:50:45;5.60;99.90
23703;DHT22;12030;50.376;8.762;2024-02-26T05:53:11;5.60;99.90
23703;DHT22;12030;50.376;8.762;2024-02-26T05:55:37;5.60;99.90
23703;DHT22;12030;50.376;8.762;2024-02-26T05:58:02;5.60;99.90
23703;DHT22;12030;50.376;8.762;2024-02-26T06:00:28;5.60;99.90
23703;DHT22;12030;50.376;8.762;2024-02-26T06:02:53;5.60;99.90
23703;DHT22;12030;50.376;8.762;2024-02-26T06:05:19;5.60;99.90
23703;DHT22;12030;50.376;8.762;2024-02-26T06:07:44;5.60;99.90
23703;DHT22;12030;50.376;8.762;2024-02-26T06:10:10;5.60;99.90
23703;DHT22;12030;50.376;8.762;2024-02-26T06:12:36;5.60;99.90
23703;DHT22;12030;50.376;8.762;2024-02-26T06:15:02;5.60;99.90
23703;DHT22;12030;50.376;8.762;2024-02-26T06:17:28;5.60;99.90
23703;DHT22;12030;50.376;8.762;2024-02-26T06:19:53;5.70;99.90
23703;DHT22;12030;50.376;8.762;2024-02-26T06:22:19;5.60;99.90
23703;DHT22;12030;50.376;8.762;2024-02-26T06:24:45;5.80;99.90
23703;DHT22;12030;50.376;8.762;2024-02-26T06:27:10;5.80;99.90
23703;DHT22;12030;50.376;8.762;2024-02-26T06:29:36;5.90;99.90
23703;DHT22;12030;50.376;8.762;2024-02-26T06:32:01;6.00;99.90
23703;DHT22;12030;50.376;8.762;2024-02-26T06:34:27;6.00;99.90
23703;DHT22;12030;50.376;8.762;2024-02-26T06:36:53;6.00;99.90
23703;DHT22;12030;50.376;8.762;2024-02-26T06:39:18;5.90;99.90
23703;DHT22;12030;50.376;8.762;2024-02-26T06:41:44;5.90;99.90
23703;DHT22;12030;50.376;8.762;2024-02-26T06:44:12;5.90;99.90
23703;DHT22;12030;50.376;8.762;2024-02-26T06:46:38;5.90;99.90
23703;DHT22;12030;50.376;8.762;2024-02-26T06:49:03;5.90;99.90
23703;DHT22;12030;50.376;8.762;2024-02-26T06:51:29;6.00;99.90
23703;DHT22;12030;50.376;8.762;2024-02-26T06:53:54;6.10;99.90
23703;DHT22;12030;50.376;8.762;2024-02-26T06:56:20;6.10;99.90
23703;DHT22;12030;50.376;8.762;2024-02-26T06:58:45;6.10;99.90
23703;DHT22;12030;50.376;8.762;2024-02-26T07:01:12;6.10;99.90
23703;DHT22;12030;50.376;8.762;2024-02-26T07:03:39;6.10;99.90
23703;DHT22;12030;50.376;8.762;2024-02-26T07:06:05;6.10;99.90
23703;DHT22;12030;50.376;8.762;2024-02-26T07:08:30;6.00;99.90
23703;DHT22;12030;50.376;8.762;2024-02-26T07:10:56;6.00;99.90
23703;DHT22;12030;50.376;8.762;2024-02-26T07:13:21;6.00;99.90
23703;DHT22;12030;50.376;8.762;2024-02-26T07:15:47;6.10;99.90
23703;DHT22;12030;50.376;8.762;2024-02-26T07:18:12;6.10;99.90
23703;DHT22;12030;50.376;8.762;2024-02-26T07:20:38;6.10;99.90
23703;DHT22;12030;50.376;8.762;2024-02-26T07:23:04;6.20;99.90
23703;DHT22;12030;50.376;8.762;2024-02-26T07:25:29;6.20;99.90
23703;DHT22;12030;50.376;8.762;2024-02-26T07:27:55;6.30;99.90
23703;DHT22;12030;50.376;8.762;2024-02-26T07:30:20;6.30;99.90
23703;DHT22;12030;50.376;8.762;2024-02-26T07:32:45;6.20;99.90
23703;DHT22;12030;50.376;8.762;2024-02-26T07:35:11;6.10;99.90
23703;DHT22;12030;50.376;8.762;2024-02-26T07:37:37;6.00;99.90
23703;DHT22;12030;50.376;8.762;2024-02-26T07:40:03;5.90;99.90
23703;DHT22;12030;50.376;8.762;2024-02-26T07:42:29;6.00;99.90
23703;DHT22;12030;50.376;8.762;2024-02-26T07:44:54;6.10;99.90
23703;DHT22;12030;50.376;8.762;2024-02-26T07:47:20;6.10;99.90
23703;DHT22;12030;50.376;8.762;2024-02-26T07:49:46;6.20;99.90
23703;DHT22;12030;50.376;8.762;2024-02-26T07:52:12;6.20;99.90
23703;DHT22;12030;50.376;8.762;2024-02-26T07:54:37;6.20;99.90
23703;DHT22;12030;50.376;8.762;2024-02-26T07:57:03;6.20;99.90
23703;DHT22;12030;50.376;8.762;2024-02-26T07:59:31;6.20;99.90
23703;DHT22;12030;50.376;8.762;2024-02-26T08:01:57;6.20;99.90
23703;DHT22;12030;50.376;8.762;2024-02-26T08:04:22;6.10;99.90
23703;DHT22;12030;50.376;8.762;2024-02-26T08:06:48;6.10;99.90
23703;DHT22;12030;50.376;8.762;2024-02-26T08:09:13;6.30;99.90
23703;DHT22;12030;50.376;8.762;2024-02-26T08:11:39;6.30;99.90
23703;DHT22;12030;50.376;8.762;2024-02-26T08:14:05;6.30;99.90
23703;DHT22;12030;50.376;8.762;2024-02-26T08:16:30;6.30;99.90
23703;DHT22;12030;50.376;8.762;2024-02-26T08:18:56;6.30;99.90
23703;DHT22;12030;50.376;8.762;2024-02-26T08:21:21;6.30;99.90
23703;DHT22;12030;50.376;8.762;2024-02-26T08:23:47;6.20;99.90
23703;DHT22;12030;50.376;8.762;2024-02-26T08:26:12;6.20;99.90
23703;DHT22;12030;50.376;8.762;2024-02-26T08:28:38;6.30;99.90
23703;DHT22;12030;50.376;8.762;2024-02-26T08:31:03;6.30;99.90
23703;DHT22;12030;50.376;8.762;2024-02-26T08:33:30;6.30;99.90
23703;DHT22;12030;50.376;8.762;2024-02-26T08:35:56;6.20;99.90
23703;DHT22;12030;50.376;8.762;2024-02-26T08:38:22;6.20;99.90
23703;DHT22;12030;50.376;8.762;2024-02-26T08:40:48;6.20;99.90
23703;DHT22;12030;50.376;8.762;2024-02-26T08:43:14;6.20;99.90
23703;DHT22;12030;50.376;8.762;2024-02-26T08:45:39;6.30;99.90
23703;DHT22;12030;50.376;8.762;2024-02-26T08:48:05;6.40;99.90
23703;DHT22;12030;50.376;8.762;2024-02-26T08:50:31;6.40;99.90
23703;DHT22;12030;50.376;8.762;2024-02-26T08:52:56;6.40;99.90
23703;DHT22;12030;50.376;8.762;2024-02-26T08:55:22;6.50;99.90
23703;DHT22;12030;50.376;8.762;2024-02-26T08:57:48;6.60;99.90
23703;DHT22;12030;50.376;8.762;2024-02-26T09:00:14;6.60;99.90
23703;DHT22;12030;50.376;8.762;2024-02-26T09:02:41;6.70;99.90
23703;DHT22;12030;50.376;8.762;2024-02-26T09:05:09;6.70;99.90
23703;DHT22;12030;50.376;8.762;2024-02-26T09:07:35;6.70;99.90
23703;DHT22;12030;50.376;8.762;2024-02-26T09:10:01;6.80;99.90
23703;DHT22;12030;50.376;8.762;2024-02-26T09:12:27;6.80;99.90
23703;DHT22;12030;50.376;8.762;2024-02-26T09:14:52;6.70;99.90
23703;DHT22;12030;50.376;8.762;2024-02-26T09:17:18;6.80;99.90
23703;DHT22;12030;50.376;8.762;2024-02-26T09:19:43;6.90;99.90
23703;DHT22;12030;50.376;8.762;2024-02-26T09:22:09;6.90;99.90
23703;DHT22;12030;50.376;8.762;2024-02-26T09:24:35;6.80;99.90
23703;DHT22;12030;50.376;8.762;2024-02-26T09:27:01;6.80;99.90
23703;DHT22;12030;50.376;8.762;2024-02-26T09:29:26;6.80;99.90
23703;DHT22;12030;50.376;8.762;2024-02-26T09:31:52;6.70;99.90
23703;DHT22;12030;50.376;8.762;2024-02-26T09:34:18;6.70;99.90
23703;DHT22;12030;50.376;8.762;2024-02-26T09:36:44;6.70;99.90
23703;DHT22;12030;50.376;8.762;2024-02-26T09:39:09;6.80;99.90
23703;DHT22;12030;50.376;8.762;2024-02-26T09:41:37;6.90;99.90
23703;DHT22;12030;50.376;8.762;2024-02-26T09:44:04;6.90;99.90
23703;DHT22;12030;50.376;8.762;2024-02-26T09:46:30;6.90;99.90
23703;DHT22;12030;50.376;8.762;2024-02-26T09:48:56;7.10;99.90
23703;DHT22;12030;50.376;8.762;2024-02-26T09:51:25;7.10;99.90
23703;DHT22;12030;50.376;8.762;2024-02-26T09:53:52;7.30;99.90
23703;DHT22;12030;50.376;8.762;2024-02-26T09:56:18;7.30;99.90
23703;DHT22;12030;50.376;8.762;2024-02-26T09:58:44;7.20;99.90
23703;DHT22;12030;50.376;8.762;2024-02-26T10:01:18;7.20;99.90
23703;DHT22;12030;50.376;8.762;2024-02-26T10:03:48;7.20;99.90
23703;DHT22;12030;50.376;8.762;2024-02-26T10:06:15;7.40;99.90
23703;DHT22;12030;50.376;8.762;2024-02-26T10:08:41;7.50;99.90
23703;DHT22;12030;50.376;8.762;2024-02-26T10:11:08;7.50;99.90
23703;DHT22;12030;50.376;8.762;2024-02-26T10:13:35;7.70;99.90
23703;DHT22;12030;50.376;8.762;2024-02-26T10:16:02;7.80;99.90
23703;DHT22;12030;50.376;8.762;2024-02-26T10:18:48;7.90;99.90
23703;DHT22;12030;50.376;8.762;2024-02-26T10:21:16;8.00;99.90
23703;DHT22;12030;50.376;8.762;2024-02-26T10:23:43;8.10;99.90
23703;DHT22;12030;50.376;8.762;2024-02-26T10:26:10;8.00;99.90
23703;DHT22;12030;50.376;8.762;2024-02-26T10:28:37;7.90;99.90
23703;DHT22;12030;50.376;8.762;2024-02-26T10:31:03;7.90;99.90
23703;DHT22;12030;50.376;8.762;2024-02-26T10:33:28;8.00;99.90
23703;DHT22;12030;50.376;8.762;2024-02-26T10:35:54;8.10;99.90
23703;DHT22;12030;50.376;8.762;2024-02-26T10:38:19;8.20;99.90
23703;DHT22;12030;50.376;8.762;2024-02-26T10:40:48;8.20;99.90
23703;DHT22;12030;50.376;8.762;2024-02-26T10:43:14;8.30;99.90
23703;DHT22;12030;50.376;8.762;2024-02-26T10:45:42;8.30;99.90
23703;DHT22;12030;50.376;8.762;2024-02-26T10:48:14;8.20;99.90
23703;DHT22;12030;50.376;8.762;2024-02-26T10:50:40;8.40;99.90
23703;DHT22;12030;50.376;8.762;2024-02-26T10:53:16;8.60;99.90
23703;DHT22;12030;50.376;8.762;2024-02-26T10:55:44;8.80;99.90
23703;DHT22;12030;50.376;8.762;2024-02-26T10:58:10;8.80;99.90
23703;DHT22;12030;50.376;8.762;2024-02-26T11:00:38;8.80;99.90
23703;DHT22;12030;50.376;8.762;2024-02-26T11:03:05;8.80;99.90
23703;DHT22;12030;50.376;8.762;2024-02-26T11:05:31;8.90;99.90
23703;DHT22;12030;50.376;8.762;2024-02-26T11:07:59;8.90;99.90
23703;DHT22;12030;50.376;8.762;2024-02-26T11:10:26;9.00;99.90
23703;DHT22;12030;50.376;8.762;2024-02-26T11:12:56;9.10;99.90
23703;DHT22;12030;50.376;8.762;2024-02-26T11:15:23;9.00;99.90
23703;DHT22;12030;50.376;8.762;2024-02-26T11:17:52;9.00;99.90
23703;DHT22;12030;50.376;8.762;2024-02-26T11:20:17;9.10;99.90
23703;DHT22;12030;50.376;8.762;2024-02-26T11:22:44;9.10;99.90
23703;DHT22;12030;50.376;8.762;2024-02-26T11:25:10;9.10;99.90
23703;DHT22;12030;50.376;8.762;2024-02-26T11:27:45;9.20;99.90
23703;DHT22;12030;50.376;8.762;2024-02-26T11:30:13;9.30;99.90
23703;DHT22;12030;50.376;8.762;2024-02-26T11:32:39;9.30;99.90
23703;DHT22;12030;50.376;8.762;2024-02-26T11:35:05;9.20;99.90
23703;DHT22;12030;50.376;8.762;2024-02-26T11:37:32;9.10;99.90
23703;DHT22;12030;50.376;8.762;2024-02-26T11:39:59;9.10;99.90
23703;DHT22;12030;50.376;8.762;2024-02-26T11:42:29;9.10;99.90
23703;DHT22;12030;50.376;8.762;2024-02-26T11:44:55;9.00;99.90
23703;DHT22;12030;50.376;8.762;2024-02-26T11:47:27;9.00;99.90
23703;DHT22;12030;50.376;8.762;2024-02-26T11:49:52;9.20;99.90
23703;DHT22;12030;50.376;8.762;2024-02-26T11:52:18;9.30;99.90
23703;DHT22;12030;50.376;8.762;2024-02-26T11:54:53;9.20;99.90
23703;DHT22;12030;50.376;8.762;2024-02-26T11:57:39;9.20;99.90
23703;DHT22;12030;50.376;8.762;2024-02-26T12:00:12;9.20;99.90
23703;DHT22;12030;50.376;8.762;2024-02-26T12:05:19;9.20;99.90
23703;DHT22;12030;50.376;8.762;2024-02-26T12:07:49;9.30;99.90
23703;DHT22;12030;50.376;8.762;2024-02-26T12:10:30;9.40;99.90
23703;DHT22;12030;50.376;8.762;2024-02-26T12:13:00;9.50;99.90
23703;DHT22;12030;50.376;8.762;2024-02-26T12:15:31;9.60;99.90
23703;DHT22;12030;50.376;8.762;2024-02-26T12:17:59;9.70;99.90
23703;DHT22;12030;50.376;8.762;2024-02-26T12:20:25;9.70;99.90
23703;DHT22;12030;50.376;8.762;2024-02-26T12:22:50;9.70;99.90
23703;DHT22;12030;50.376;8.762;2024-02-26T12:25:22;9.80;99.90
23703;DHT22;12030;50.376;8.762;2024-02-26T12:27:48;9.90;99.90
23703;DHT22;12030;50.376;8.762;2024-02-26T12:30:14;10.10;99.90
23703;DHT22;12030;50.376;8.762;2024-02-26T12:32:40;10.00;99.90
23703;DHT22;12030;50.376;8.762;2024-02-26T12:35:06;10.00;99.90
23703;DHT22;12030;50.376;8.762;2024-02-26T12:37:32;10.10;99.90
23703;DHT22;12030;50.376;8.762;2024-02-26T12:39:57;10.20;99.90
23703;DHT22;12030;50.376;8.762;2024-02-26T12:42:23;10.10;99.90
23703;DHT22;12030;50.376;8.762;2024-02-26T12:44:50;10.00;99.90
23703;DHT22;12030;50.376;8.762;2024-02-26T12:47:17;9.90;99.90
23703;DHT22;12030;50.376;8.762;2024-02-26T12:49:47;10.00;99.90
23703;DHT22;12030;50.376;8.762;2024-02-26T12:52:13;10.10;99.90
23703;DHT22;12030;50.376;8.762;2024-02-26T12:54:38;10.10;99.90
23703;DHT22;12030;50.376;8.762;2024-02-26T12:57:05;10.20;99.90
23703;DHT22;12030;50.376;8.762;2024-02-26T12:59:33;10.20;99.90
23703;DHT22;12030;50.376;8.762;2024-02-26T13:02:00;10.40;99.90
23703;DHT22;12030;50.376;8.762;2024-02-26T13:04:28;10.60;99.90
23703;DHT22;12030;50.376;8.762;2024-02-26T13:06:54;10.60;99.90
23703;DHT22;12030;50.376;8.762;2024-02-26T13:09:20;10.60;99.90
23703;DHT22;12030;50.376;8.762;2024-02-26T13:11:53;10.80;99.90
23703;DHT22;12030;50.376;8.762;2024-02-26T13:14:20;10.70;99.90
23703;DHT22;12030;50.376;8.762;2024-02-26T13:16:54;10.60;99.90
23703;DHT22;12030;50.376;8.762;2024-02-26T13:19:20;10.60;99.90
23703;DHT22;12030;50.376;8.762;2024-02-26T13:21:46;10.70;99.90
23703;DHT22;12030;50.376;8.762;2024-02-26T13:24:13;10.90;99.90
23703;DHT22;12030;50.376;8.762;2024-02-26T13:26:39;11.00;99.90
23703;DHT22;12030;50.376;8.762;2024-02-26T13:29:04;11.10;99.90
23703;DHT22;12030;50.376;8.762;2024-02-26T13:31:30;11.30;99.90
23703;DHT22;12030;50.376;8.762;2024-02-26T13:33:56;11.30;99.90
23703;DHT22;12030;50.376;8.762;2024-02-26T13:36:23;11.30;99.90
23703;DHT22;12030;50.376;8.762;2024-02-26T13:38:52;11.30;99.90
23703;DHT22;12030;50.376;8.762;2024-02-26T13:41:21;11.20;99.90
23703;DHT22;12030;50.376;8.762;2024-02-26T13:43:47;11.50;99.90
23703;DHT22;12030;50.376;8.762;2024-02-26T13:46:14;11.70;99.90
23703;DHT22;12030;50.376;8.762;2024-02-26T13:48:41;11.60;99.90
23703;DHT22;12030;50.376;8.762;2024-02-26T13:51:06;11.60;99.90
23703;DHT22;12030;50.376;8.762;2024-02-26T13:53:32;11.70;99.90
23703;DHT22;12030;50.376;8.762;2024-02-26T13:55:58;11.70;99.90
23703;DHT22;12030;50.376;8.762;2024-02-26T13:58:29;11.50;99.90
23703;DHT22;12030;50.376;8.762;2024-02-26T14:00:55;11.60;99.90
23703;DHT22;12030;50.376;8.762;2024-02-26T14:03:20;11.70;99.90
23703;DHT22;12030;50.376;8.762;2024-02-26T14:05:46;11.80;99.90
23703;DHT22;12030;50.376;8.762;2024-02-26T14:08:12;11.80;99.90
23703;DHT22;12030;50.376;8.762;2024-02-26T14:10:38;11.80;99.90
23703;DHT22;12030;50.376;8.762;2024-02-26T14:13:04;11.80;99.90
23703;DHT22;12030;50.376;8.762;2024-02-26T14:15:29;11.80;99.90
23703;DHT22;12030;50.376;8.762;2024-02-26T14:17:55;12.00;99.90
23703;DHT22;12030;50.376;8.762;2024-02-26T14:20:25;12.00;99.90
23703;DHT22;12030;50.376;8.762;2024-02-26T14:22:51;12.00;99.90
23703;DHT22;12030;50.376;8.762;2024-02-26T14:25:21;12.20;99.90
23703;DHT22;12030;50.376;8.762;2024-02-26T14:27:47;12.10;99.90
23703;DHT22;12030;50.376;8.762;2024-02-26T14:30:13;12.10;99.90
23703;DHT22;12030;50.376;8.762;2024-02-26T14:32:39;12.10;99.90
23703;DHT22;12030;50.376;8.762;2024-02-26T14:35:09;12.10;99.90
23703;DHT22;12030;50.376;8.762;2024-02-26T14:37:35;12.20;99.90
23703;DHT22;12030;50.376;8.762;2024-02-26T14:40:02;12.10;99.90
23703;DHT22;12030;50.376;8.762;2024-02-26T14:42:31;12.30;99.90
23703;DHT22;12030;50.376;8.762;2024-02-26T14:44:56;12.60;99.90
23703;DHT22;12030;50.376;8.762;2024-02-26T14:47:22;12.60;99.90
23703;DHT22;12030;50.376;8.762;2024-02-26T14:49:48;12.60;99.90
23703;DHT22;12030;50.376;8.762;2024-02-26T14:52:14;12.60;99.90
23703;DHT22;12030;50.376;8.762;2024-02-26T14:54:40;12.60;99.90
23703;DHT22;12030;50.376;8.762;2024-02-26T14:57:06;12.60;99.90
23703;DHT22;12030;50.376;8.762;2024-02-26T14:59:32;12.50;99.90
23703;DHT22;12030;50.376;8.762;2024-02-26T15:01:58;12.50;99.90
23703;DHT22;12030;50.376;8.762;2024-02-26T15:04:27;12.30;99.90
23703;DHT22;12030;50.376;8.762;2024-02-26T15:06:52;12.30;99.90
23703;DHT22;12030;50.376;8.762;2024-02-26T15:09:18;12.30;99.90
23703;DHT22;12030;50.376;8.762;2024-02-26T15:11:43;12.20;99.90
23703;DHT22;12030;50.376;8.762;2024-02-26T15:14:09;12.10;99.90
23703;DHT22;12030;50.376;8.762;2024-02-26T15:16:36;12.00;99.90
23703;DHT22;12030;50.376;8.762;2024-02-26T15:19:02;12.00;99.90
23703;DHT22;12030;50.376;8.762;2024-02-26T15:21:28;12.00;99.90
23703;DHT22;12030;50.376;8.762;2024-02-26T15:23:54;12.00;99.90
23703;DHT22;12030;50.376;8.762;2024-02-26T15:26:21;11.90;99.90
23703;DHT22;12030;50.376;8.762;2024-02-26T15:28:47;11.70;99.90
23703;DHT22;12030;50.376;8.762;2024-02-26T15:31:15;11.70;99.90
23703;DHT22;12030;50.376;8.762;2024-02-26T15:33:41;11.80;99.90
23703;DHT22;12030;50.376;8.762;2024-02-26T15:36:07;11.70;99.90
23703;DHT22;12030;50.376;8.762;2024-02-26T15:38:35;11.70;99.90
23703;DHT22;12030;50.376;8.762;2024-02-26T15:41:01;11.70;99.90